sensor_id;sensor_type;location;lat;lon;timestamp;temperature;humidity
33139;DHT22;19501;50.948;5.316;2023-03-23T00:01:04;13.30;99.90
33139;DHT22;19501;50.948;5.316;2023-03-23T00:03:30;13.30;99.90
33139;DHT22;19501;50.948;5.316;2023-03-23T00:05:59;13.20;99.90
33139;DHT22;19501;50.948;5.316;2023-03-23T00:08:36;13.20;99.90
33139;DHT22;19501;50.948;5.316;2023-03-23T00:11:20;13.20;99.90
33139;DHT22;19501;50.948;5.316;2023-03-23T00:13:47;13.20;99.90
33139;DHT22;19501;50.948;5.316;2023-03-23T00:16:21;13.20;99.90
33139;DHT22;19501;50.948;5.316;2023-03-23T00:18:57;13.20;99.90
33139;DHT22;19501;50.948;5.316;2023-03-23T00:21:28;13.30;99.90
33139;DHT22;19501;50.948;5.316;2023-03-23T00:24:00;13.30;99.90
33139;DHT22;19501;50.948;5.316;2023-03-23T00:26:26;13.30;99.90
33139;DHT22;19501;50.948;5.316;2023-03-23T00:28:55;13.30;99.90
33139;DHT22;19501;50.948;5.316;2023-03-23T00:31:21;13.20;99.90
33139;DHT22;19501;50.948;5.316;2023-03-23T00:33:47;13.30;99.90
33139;DHT22;19501;50.948;5.316;2023-03-23T00:36:15;13.30;99.90
33139;DHT22;19501;50.948;5.316;2023-03-23T00:38:41;13.20;99.90
33139;DHT22;19501;50.948;5.316;2023-03-23T00:41:09;13.30;99.90
33139;DHT22;19501;50.948;5.316;2023-03-23T00:43:36;13.30;99.90
33139;DHT22;19501;50.948;5.316;2023-03-23T00:46:03;13.40;99.90
33139;DHT22;19501;50.948;5.316;2023-03-23T00:48:35;13.40;99.90
33139;DHT22;19501;50.948;5.316;2023-03-23T00:51:01;13.40;99.90
33139;DHT22;19501;50.948;5.316;2023-03-23T00:53:32;13.30;99.90
33139;DHT22;19501;50.948;5.316;2023-03-23T00:55:58;13.30;99.90
33139;DHT22;19501;50.948;5.316;2023-03-23T00:58:26;13.30;99.90
33139;DHT22;19501;50.948;5.316;2023-03-23T01:00:52;13.30;99.90
33139;DHT22;19501;50.948;5.316;2023-03-23T01:03:17;13.30;99.90
33139;DHT22;19501;50.948;5.316;2023-03-23T01:05:44;13.30;99.90
33139;DHT22;19501;50.948;5.316;2023-03-23T01:08:13;13.20;99.90
33139;DHT22;19501;50.948;5.316;2023-03-23T01:10:40;13.20;99.90
33139;DHT22;19501;50.948;5.316;2023-03-23T01:13:07;13.20;99.90
33139;DHT22;19501;50.948;5.316;2023-03-23T01:15:33;13.10;99.90
33139;DHT22;19501;50.948;5.316;2023-03-23T01:17:59;13.10;99.90
33139;DHT22;19501;50.948;5.316;2023-03-23T01:20:27;13.10;99.90
33139;DHT22;19501;50.948;5.316;2023-03-23T01:22:54;13.10;99.90
33139;DHT22;19501;50.948;5.316;2023-03-23T01:25:30;13.10;99.90
33139;DHT22;19501;50.948;5.316;2023-03-23T01:27:56;13.10;99.90
33139;DHT22;19501;50.948;5.316;2023-03-23T01:30:22;13.00;99.90
33139;DHT22;19501;50.948;5.316;2023-03-23T01:32:51;13.10;99.90
33139;DHT22;19501;50.948;5.316;2023-03-23T01:35:17;13.00;99.90
33139;DHT22;19501;50.948;5.316;2023-03-23T01:37:42;13.00;99.90
33139;DHT22;19501;50.948;5.316;2023-03-23T01:40:09;13.00;99.90
33139;DHT22;19501;50.948;5.316;2023-03-23T01:42:37;13.00;99.90
33139;DHT22;19501;50.948;5.316;2023-03-23T01:45:25;13.00;99.90
33139;DHT22;19501;50.948;5.316;2023-03-23T01:47:59;13.00;99.90
33139;DHT22;19501;50.948;5.316;2023-03-23T01:50:28;13.00;99.90
33139;DHT22;19501;50.948;5.316;2023-03-23T01:52:57;13.00;99.90
33139;DHT22;19501;50.948;5.316;2023-03-23T01:55:25;13.00;99.90
33139;DHT22;19501;50.948;5.316;2023-03-23T01:57:52;13.00;99.90
33139;DHT22;19501;50.948;5.316;2023-03-23T02:00:19;12.90;99.90
33139;DHT22;19501;50.948;5.316;2023-03-23T02:02:47;13.00;99.90
33139;DHT22;19501;50.948;5.316;2023-03-23T02:05:27;12.90;99.90
33139;DHT22;19501;50.948;5.316;2023-03-23T02:07:58;12.90;99.90
33139;DHT22;19501;50.948;5.316;2023-03-23T02:10:34;12.90;99.90
33139;DHT22;19501;50.948;5.316;2023-03-23T02:13:03;12.90;99.90
33139;DHT22;19501;50.948;5.316;2023-03-23T02:26:53;13.00;99.90
33139;DHT22;19501;50.948;5.316;2023-03-23T02:34:31;13.00;99.90
33139;DHT22;19501;50.948;5.316;2023-03-23T02:37:02;13.00;99.90
33139;DHT22;19501;50.948;5.316;2023-03-23T02:39:33;13.00;99.90
33139;DHT22;19501;50.948;5.316;2023-03-23T02:42:09;13.00;99.90
33139;DHT22;19501;50.948;5.316;2023-03-23T02:44:40;13.00;99.90
33139;DHT22;19501;50.948;5.316;2023-03-23T02:47:13;13.10;99.90
33139;DHT22;19501;50.948;5.316;2023-03-23T02:49:42;13.10;99.90
33139;DHT22;19501;50.948;5.316;2023-03-23T02:52:14;13.10;99.90
33139;DHT22;19501;50.948;5.316;2023-03-23T02:54:43;13.10;99.90
33139;DHT22;19501;50.948;5.316;2023-03-23T02:57:10;13.10;99.90
33139;DHT22;19501;50.948;5.316;2023-03-23T02:59:36;13.20;99.90
33139;DHT22;19501;50.948;5.316;2023-03-23T03:02:47;13.10;99.90
33139;DHT22;19501;50.948;5.316;2023-03-23T03:10:12;13.10;99.90
33139;DHT22;19501;50.948;5.316;2023-03-23T03:13:25;13.10;99.90
33139;DHT22;19501;50.948;5.316;2023-03-23T03:21:12;13.20;99.90
33139;DHT22;19501;50.948;5.316;2023-03-23T03:23:42;13.10;99.90
33139;DHT22;19501;50.948;5.316;2023-03-23T03:26:11;13.20;99.90
33139;DHT22;19501;50.948;5.316;2023-03-23T03:28:38;13.20;99.90
33139;DHT22;19501;50.948;5.316;2023-03-23T03:31:05;13.20;99.90
33139;DHT22;19501;50.948;5.316;2023-03-23T03:33:32;13.20;99.90
33139;DHT22;19501;50.948;5.316;2023-03-23T03:36:03;13.20;99.90
33139;DHT22;19501;50.948;5.316;2023-03-23T03:38:41;13.20;99.90
33139;DHT22;19501;50.948;5.316;2023-03-23T03:41:07;13.20;99.90
33139;DHT22;19501;50.948;5.316;2023-03-23T03:43:32;13.20;99.90
33139;DHT22;19501;50.948;5.316;2023-03-23T03:45:58;13.20;99.90
33139;DHT22;19501;50.948;5.316;2023-03-23T03:48:23;13.10;99.90
33139;DHT22;19501;50.948;5.316;2023-03-23T03:50:49;13.20;99.90
33139;DHT22;19501;50.948;5.316;2023-03-23T03:53:17;13.10;99.90
33139;DHT22;19501;50.948;5.316;2023-03-23T03:55:43;13.20;99.90
33139;DHT22;19501;50.948;5.316;2023-03-23T03:58:13;13.20;99.90
33139;DHT22;19501;50.948;5.316;2023-03-23T04:00:39;13.10;99.90
33139;DHT22;19501;50.948;5.316;2023-03-23T04:03:06;13.10;99.90
33139;DHT22;19501;50.948;5.316;2023-03-23T04:05:33;13.10;99.90
33139;DHT22;19501;50.948;5.316;2023-03-23T04:07:58;13.10;99.90
33139;DHT22;19501;50.948;5.316;2023-03-23T04:10:27;13.00;99.90
33139;DHT22;19501;50.948;5.316;2023-03-23T04:12:54;13.00;99.90
33139;DHT22;19501;50.948;5.316;2023-03-23T04:15:23;13.00;99.90
33139;DHT22;19501;50.948;5.316;2023-03-23T04:17:48;13.10;99.90
33139;DHT22;19501;50.948;5.316;2023-03-23T04:20:17;13.00;99.90
33139;DHT22;19501;50.948;5.316;2023-03-23T04:22:44;13.00;99.90
33139;DHT22;19501;50.948;5.316;2023-03-23T04:25:12;13.10;99.90
33139;DHT22;19501;50.948;5.316;2023-03-23T04:27:39;13.10;99.90
33139;DHT22;19501;50.948;5.316;2023-03-23T04:30:09;13.10;99.90
33139;DHT22;19501;50.948;5.316;2023-03-23T04:32:35;13.10;99.90
33139;DHT22;19501;50.948;5.316;2023-03-23T04:35:01;13.10;99.90
33139;DHT22;19501;50.948;5.316;2023-03-23T04:37:27;13.00;99.90
33139;DHT22;19501;50.948;5.316;2023-03-23T04:39:59;13.00;99.90
33139;DHT22;19501;50.948;5.316;2023-03-23T04:42:30;13.00;99.90
33139;DHT22;19501;50.948;5.316;2023-03-23T04:44:57;13.00;99.90
33139;DHT22;19501;50.948;5.316;2023-03-23T04:47:24;13.00;99.90
33139;DHT22;19501;50.948;5.316;2023-03-23T04:49:50;13.00;99.90
33139;DHT22;19501;50.948;5.316;2023-03-23T04:52:17;13.10;99.90
33139;DHT22;19501;50.948;5.316;2023-03-23T04:54:43;13.00;99.90
33139;DHT22;19501;50.948;5.316;2023-03-23T04:57:09;13.00;99.90
33139;DHT22;19501;50.948;5.316;2023-03-23T04:59:35;13.00;99.90
33139;DHT22;19501;50.948;5.316;2023-03-23T05:02:01;12.90;99.90
33139;DHT22;19501;50.948;5.316;2023-03-23T05:04:27;13.00;99.90
33139;DHT22;19501;50.948;5.316;2023-03-23T05:06:52;13.00;99.90
33139;DHT22;19501;50.948;5.316;2023-03-23T05:09:18;13.00;99.90
33139;DHT22;19501;50.948;5.316;2023-03-23T05:11:45;13.00;99.90
33139;DHT22;19501;50.948;5.316;2023-03-23T05:14:10;12.90;99.90
33139;DHT22;19501;50.948;5.316;2023-03-23T05:16:36;12.80;99.90
33139;DHT22;19501;50.948;5.316;2023-03-23T05:19:04;12.90;99.90
33139;DHT22;19501;50.948;5.316;2023-03-23T05:21:30;12.90;99.90
33139;DHT22;19501;50.948;5.316;2023-03-23T05:23:58;13.00;99.90
33139;DHT22;19501;50.948;5.316;2023-03-23T05:26:27;13.00;99.90
33139;DHT22;19501;50.948;5.316;2023-03-23T05:28:55;12.90;99.90
33139;DHT22;19501;50.948;5.316;2023-03-23T05:31:22;12.90;99.90
33139;DHT22;19501;50.948;5.316;2023-03-23T05:33:49;12.80;99.90
33139;DHT22;19501;50.948;5.316;2023-03-23T05:36:15;12.90;99.90
33139;DHT22;19501;50.948;5.316;2023-03-23T05:38:43;12.80;99.90
33139;DHT22;19501;50.948;5.316;2023-03-23T05:41:14;12.80;99.90
33139;DHT22;19501;50.948;5.316;2023-03-23T05:43:39;12.80;99.90
33139;DHT22;19501;50.948;5.316;2023-03-23T05:46:06;12.80;99.90
33139;DHT22;19501;50.948;5.316;2023-03-23T05:48:33;12.80;99.90
33139;DHT22;19501;50.948;5.316;2023-03-23T05:50:59;12.70;99.90
33139;DHT22;19501;50.948;5.316;2023-03-23T05:53:25;12.70;99.90
33139;DHT22;19501;50.948;5.316;2023-03-23T05:55:51;12.70;99.90
33139;DHT22;19501;50.948;5.316;2023-03-23T05:58:18;12.70;99.90
33139;DHT22;19501;50.948;5.316;2023-03-23T06:00:44;12.70;99.90
33139;DHT22;19501;50.948;5.316;2023-03-23T06:03:10;12.70;99.90
33139;DHT22;19501;50.948;5.316;2023-03-23T06:05:43;12.70;99.90
33139;DHT22;19501;50.948;5.316;2023-03-23T06:08:09;12.70;99.90
33139;DHT22;19501;50.948;5.316;2023-03-23T06:10:35;12.70;99.90
33139;DHT22;19501;50.948;5.316;2023-03-23T06:13:02;12.70;99.90
33139;DHT22;19501;50.948;5.316;2023-03-23T06:15:28;12.70;99.90
33139;DHT22;19501;50.948;5.316;2023-03-23T06:17:58;12.70;99.90
33139;DHT22;19501;50.948;5.316;2023-03-23T06:20:24;12.70;99.90
33139;DHT22;19501;50.948;5.316;2023-03-23T06:22:50;12.70;99.90
33139;DHT22;19501;50.948;5.316;2023-03-23T06:25:18;12.70;99.90
33139;DHT22;19501;50.948;5.316;2023-03-23T06:27:44;12.60;99.90
33139;DHT22;19501;50.948;5.316;2023-03-23T06:30:12;12.70;99.90
33139;DHT22;19501;50.948;5.316;2023-03-23T06:32:38;12.70;99.90
33139;DHT22;19501;50.948;5.316;2023-03-23T06:35:04;12.80;99.90
33139;DHT22;19501;50.948;5.316;2023-03-23T06:37:31;12.80;99.90
33139;DHT22;19501;50.948;5.316;2023-03-23T06:39:57;12.80;99.90
33139;DHT22;19501;50.948;5.316;2023-03-23T06:42:24;12.90;99.90
33139;DHT22;19501;50.948;5.316;2023-03-23T06:44:54;12.90;99.90
33139;DHT22;19501;50.948;5.316;2023-03-23T06:47:23;12.80;99.90
33139;DHT22;19501;50.948;5.316;2023-03-23T06:49:49;12.80;99.90
33139;DHT22;19501;50.948;5.316;2023-03-23T06:52:14;12.80;99.90
33139;DHT22;19501;50.948;5.316;2023-03-23T06:54:40;12.80;99.90
33139;DHT22;19501;50.948;5.316;2023-03-23T06:57:06;12.90;99.90
33139;DHT22;19501;50.948;5.316;2023-03-23T06:59:32;12.90;99.90
33139;DHT22;19501;50.948;5.316;2023-03-23T07:01:58;12.90;99.90
33139;DHT22;19501;50.948;5.316;2023-03-23T07:04:24;12.90;99.90
33139;DHT22;19501;50.948;5.316;2023-03-23T07:06:52;12.90;99.90
33139;DHT22;19501;50.948;5.316;2023-03-23T07:09:18;13.00;99.90
33139;DHT22;19501;50.948;5.316;2023-03-23T07:11:44;12.90;99.90
33139;DHT22;19501;50.948;5.316;2023-03-23T07:14:11;12.90;99.90
33139;DHT22;19501;50.948;5.316;2023-03-23T07:16:37;13.00;99.90
33139;DHT22;19501;50.948;5.316;2023-03-23T07:19:02;13.00;99.90
33139;DHT22;19501;50.948;5.316;2023-03-23T07:21:28;13.00;99.90
33139;DHT22;19501;50.948;5.316;2023-03-23T07:23:54;13.00;99.90
33139;DHT22;19501;50.948;5.316;2023-03-23T07:26:24;13.10;99.90
33139;DHT22;19501;50.948;5.316;2023-03-23T07:28:50;13.10;99.90
33139;DHT22;19501;50.948;5.316;2023-03-23T07:31:16;13.10;99.90
33139;DHT22;19501;50.948;5.316;2023-03-23T07:33:42;13.10;99.90
33139;DHT22;19501;50.948;5.316;2023-03-23T07:36:08;13.30;99.90
33139;DHT22;19501;50.948;5.316;2023-03-23T07:38:33;13.30;99.90
33139;DHT22;19501;50.948;5.316;2023-03-23T07:40:59;13.30;99.90
33139;DHT22;19501;50.948;5.316;2023-03-23T07:43:25;13.30;99.90
33139;DHT22;19501;50.948;5.316;2023-03-23T07:45:51;13.30;99.90
33139;DHT22;19501;50.948;5.316;2023-03-23T07:48:17;13.30;99.90
33139;DHT22;19501;50.948;5.316;2023-03-23T07:50:42;13.40;99.90
33139;DHT22;19501;50.948;5.316;2023-03-23T07:53:09;13.30;99.90
33139;DHT22;19501;50.948;5.316;2023-03-23T07:55:36;13.20;99.90
33139;DHT22;19501;50.948;5.316;2023-03-23T07:58:02;13.10;99.90
33139;DHT22;19501;50.948;5.316;2023-03-23T08:00:28;13.00;99.90
33139;DHT22;19501;50.948;5.316;2023-03-23T08:02:56;13.10;99.90
33139;DHT22;19501;50.948;5.316;2023-03-23T08:05:26;13.10;99.90
33139;DHT22;19501;50.948;5.316;2023-03-23T08:07:53;13.10;99.90
33139;DHT22;19501;50.948;5.316;2023-03-23T08:10:20;13.10;99.90
33139;DHT22;19501;50.948;5.316;2023-03-23T08:12:51;13.10;99.90
33139;DHT22;19501;50.948;5.316;2023-03-23T08:15:18;13.20;99.90
33139;DHT22;19501;50.948;5.316;2023-03-23T08:17:44;13.10;99.90
33139;DHT22;19501;50.948;5.316;2023-03-23T08:20:12;13.10;99.90
33139;DHT22;19501;50.948;5.316;2023-03-23T08:22:40;13.30;99.90
33139;DHT22;19501;50.948;5.316;2023-03-23T08:25:07;13.30;99.90
33139;DHT22;19501;50.948;5.316;2023-03-23T08:27:34;13.30;99.90
33139;DHT22;19501;50.948;5.316;2023-03-23T08:30:02;13.30;99.90
33139;DHT22;19501;50.948;5.316;2023-03-23T08:32:28;12.70;99.90
33139;DHT22;19501;50.948;5.316;2023-03-23T08:34:53;12.40;99.90
33139;DHT22;19501;50.948;5.316;2023-03-23T08:37:19;12.10;99.90
33139;DHT22;19501;50.948;5.316;2023-03-23T08:39:45;11.90;99.90
33139;DHT22;19501;50.948;5.316;2023-03-23T08:42:11;11.70;99.90
33139;DHT22;19501;50.948;5.316;2023-03-23T08:44:37;11.40;99.90
33139;DHT22;19501;50.948;5.316;2023-03-23T08:47:03;11.30;99.90
33139;DHT22;19501;50.948;5.316;2023-03-23T08:49:31;11.20;99.90
33139;DHT22;19501;50.948;5.316;2023-03-23T08:51:58;11.10;99.90
33139;DHT22;19501;50.948;5.316;2023-03-23T08:54:24;10.90;99.90
33139;DHT22;19501;50.948;5.316;2023-03-23T08:56:50;10.60;99.90
33139;DHT22;19501;50.948;5.316;2023-03-23T08:59:23;10.60;99.90
33139;DHT22;19501;50.948;5.316;2023-03-23T09:01:48;10.60;99.90
33139;DHT22;19501;50.948;5.316;2023-03-23T09:04:14;10.60;99.90
33139;DHT22;19501;50.948;5.316;2023-03-23T09:06:40;10.50;99.90
33139;DHT22;19501;50.948;5.316;2023-03-23T09:09:06;10.60;99.90
33139;DHT22;19501;50.948;5.316;2023-03-23T09:11:36;10.60;99.90
33139;DHT22;19501;50.948;5.316;2023-03-23T09:14:03;10.70;99.90
33139;DHT22;19501;50.948;5.316;2023-03-23T09:16:29;10.60;99.90
33139;DHT22;19501;50.948;5.316;2023-03-23T09:18:55;10.60;99.90
33139;DHT22;19501;50.948;5.316;2023-03-23T09:21:23;10.70;99.90
33139;DHT22;19501;50.948;5.316;2023-03-23T09:23:49;10.80;99.90
33139;DHT22;19501;50.948;5.316;2023-03-23T09:26:18;10.80;99.90
33139;DHT22;19501;50.948;5.316;2023-03-23T09:28:44;11.00;99.90
33139;DHT22;19501;50.948;5.316;2023-03-23T09:31:11;11.20;99.90
33139;DHT22;19501;50.948;5.316;2023-03-23T09:33:38;11.30;99.90
33139;DHT22;19501;50.948;5.316;2023-03-23T09:36:04;11.40;99.90
33139;DHT22;19501;50.948;5.316;2023-03-23T09:38:31;11.50;99.90
33139;DHT22;19501;50.948;5.316;2023-03-23T09:49:28;11.50;99.90
33139;DHT22;19501;50.948;5.316;2023-03-23T09:52:19;11.50;99.90
33139;DHT22;19501;50.948;5.316;2023-03-23T09:54:53;11.50;99.90
33139;DHT22;19501;50.948;5.316;2023-03-23T10:05:39;11.40;99.90
33139;DHT22;19501;50.948;5.316;2023-03-23T10:08:15;11.50;99.90
33139;DHT22;19501;50.948;5.316;2023-03-23T10:17:46;11.60;99.90
33139;DHT22;19501;50.948;5.316;2023-03-23T10:25:36;11.10;99.90
33139;DHT22;19501;50.948;5.316;2023-03-23T10:28:12;11.30;99.90
33139;DHT22;19501;50.948;5.316;2023-03-23T10:30:45;11.40;99.90
33139;DHT22;19501;50.948;5.316;2023-03-23T10:33:37;11.40;99.90
33139;DHT22;19501;50.948;5.316;2023-03-23T10:36:09;11.50;99.90
33139;DHT22;19501;50.948;5.316;2023-03-23T10:41:20;11.70;99.90
33139;DHT22;19501;50.948;5.316;2023-03-23T10:43:46;11.90;99.90
33139;DHT22;19501;50.948;5.316;2023-03-23T10:49:43;12.00;99.90
33139;DHT22;19501;50.948;5.316;2023-03-23T10:52:47;11.80;99.90
33139;DHT22;19501;50.948;5.316;2023-03-23T10:55:17;11.80;99.90
33139;DHT22;19501;50.948;5.316;2023-03-23T10:57:45;11.90;99.90
33139;DHT22;19501;50.948;5.316;2023-03-23T11:02:46;11.80;99.90
33139;DHT22;19501;50.948;5.316;2023-03-23T11:05:25;11.90;99.90
33139;DHT22;19501;50.948;5.316;2023-03-23T11:07:55;11.80;99.90
33139;DHT22;19501;50.948;5.316;2023-03-23T11:10:27;11.70;99.90
33139;DHT22;19501;50.948;5.316;2023-03-23T11:12:58;11.90;99.90
33139;DHT22;19501;50.948;5.316;2023-03-23T11:15:32;12.00;99.90
33139;DHT22;19501;50.948;5.316;2023-03-23T11:18:03;12.20;99.90
33139;DHT22;19501;50.948;5.316;2023-03-23T11:20:37;12.10;99.90
33139;DHT22;19501;50.948;5.316;2023-03-23T11:23:24;12.10;99.90
33139;DHT22;19501;50.948;5.316;2023-03-23T11:26:08;12.10;99.90
33139;DHT22;19501;50.948;5.316;2023-03-23T11:28:38;12.10;99.90
33139;DHT22;19501;50.948;5.316;2023-03-23T11:31:07;12.00;99.90
33139;DHT22;19501;50.948;5.316;2023-03-23T11:33:49;11.90;99.90
33139;DHT22;19501;50.948;5.316;2023-03-23T11:36:16;11.90;99.90
33139;DHT22;19501;50.948;5.316;2023-03-23T11:38:43;12.20;99.90
33139;DHT22;19501;50.948;5.316;2023-03-23T11:41:18;12.50;99.90
33139;DHT22;19501;50.948;5.316;2023-03-23T11:43:45;12.70;99.90
33139;DHT22;19501;50.948;5.316;2023-03-23T11:46:33;12.80;99.90
33139;DHT22;19501;50.948;5.316;2023-03-23T11:49:02;13.00;99.90
33139;DHT22;19501;50.948;5.316;2023-03-23T11:51:57;13.00;99.90
33139;DHT22;19501;50.948;5.316;2023-03-23T11:54:42;13.20;99.90
33139;DHT22;19501;50.948;5.316;2023-03-23T11:57:11;13.40;99.90
33139;DHT22;19501;50.948;5.316;2023-03-23T11:59:41;13.40;99.90
33139;DHT22;19501;50.948;5.316;2023-03-23T12:10:23;14.30;99.90
33139;DHT22;19501;50.948;5.316;2023-03-23T12:13:12;14.30;99.90
33139;DHT22;19501;50.948;5.316;2023-03-23T12:16:01;14.50;99.90
33139;DHT22;19501;50.948;5.316;2023-03-23T12:26:14;14.60;99.90
33139;DHT22;19501;50.948;5.316;2023-03-23T12:33:39;14.30;99.90
33139;DHT22;19501;50.948;5.316;2023-03-23T12:42:16;14.40;99.90
33139;DHT22;19501;50.948;5.316;2023-03-23T12:44:48;14.10;99.90
33139;DHT22;19501;50.948;5.316;2023-03-23T12:50:09;13.70;99.90
33139;DHT22;19501;50.948;5.316;2023-03-23T12:52:57;13.50;99.90
33139;DHT22;19501;50.948;5.316;2023-03-23T12:55:27;13.30;99.90
33139;DHT22;19501;50.948;5.316;2023-03-23T12:58:01;13.40;99.90
33139;DHT22;19501;50.948;5.316;2023-03-23T13:03:27;14.80;99.90
33139;DHT22;19501;50.948;5.316;2023-03-23T13:09:22;15.20;99.90
33139;DHT22;19501;50.948;5.316;2023-03-23T13:11:50;15.40;99.90
33139;DHT22;19501;50.948;5.316;2023-03-23T13:14:29;15.30;99.90
33139;DHT22;19501;50.948;5.316;2023-03-23T13:20:04;15.20;99.90
33139;DHT22;19501;50.948;5.316;2023-03-23T13:22:56;14.80;99.90
33139;DHT22;19501;50.948;5.316;2023-03-23T13:25:53;15.00;99.90
33139;DHT22;19501;50.948;5.316;2023-03-23T13:28:27;14.80;99.90
33139;DHT22;19501;50.948;5.316;2023-03-23T13:31:03;14.60;99.90
33139;DHT22;19501;50.948;5.316;2023-03-23T13:33:32;14.40;99.90
33139;DHT22;19501;50.948;5.316;2023-03-23T13:36:10;14.20;99.90
33139;DHT22;19501;50.948;5.316;2023-03-23T13:38:44;13.90;99.90
33139;DHT22;19501;50.948;5.316;2023-03-23T13:41:12;13.60;99.90
33139;DHT22;19501;50.948;5.316;2023-03-23T13:43:41;13.30;99.90
33139;DHT22;19501;50.948;5.316;2023-03-23T13:56:47;13.00;99.90
33139;DHT22;19501;50.948;5.316;2023-03-23T13:59:27;13.30;99.90
33139;DHT22;19501;50.948;5.316;2023-03-23T14:04:57;14.50;99.90
33139;DHT22;19501;50.948;5.316;2023-03-23T14:08:36;15.40;99.90
33139;DHT22;19501;50.948;5.316;2023-03-23T14:10:50;15.90;99.90
33139;DHT22;19501;50.948;5.316;2023-03-23T14:16:25;15.80;99.90
33139;DHT22;19501;50.948;5.316;2023-03-23T14:19:01;16.00;99.90
33139;DHT22;19501;50.948;5.316;2023-03-23T14:21:34;15.90;99.90
33139;DHT22;19501;50.948;5.316;2023-03-23T14:24:04;16.00;99.90
33139;DHT22;19501;50.948;5.316;2023-03-23T14:26:34;15.90;99.90
33139;DHT22;19501;50.948;5.316;2023-03-23T14:29:02;15.80;99.90
33139;DHT22;19501;50.948;5.316;2023-03-23T14:31:29;15.60;99.90
33139;DHT22;19501;50.948;5.316;2023-03-23T14:33:56;15.80;99.90
33139;DHT22;19501;50.948;5.316;2023-03-23T14:36:28;16.20;99.90
33139;DHT22;19501;50.948;5.316;2023-03-23T14:41:44;16.60;99.90
33139;DHT22;19501;50.948;5.316;2023-03-23T14:44:15;16.30;99.90
33139;DHT22;19501;50.948;5.316;2023-03-23T14:46:45;16.00;99.90
33139;DHT22;19501;50.948;5.316;2023-03-23T14:49:14;15.70;99.90
33139;DHT22;19501;50.948;5.316;2023-03-23T14:51:52;15.60;99.90
33139;DHT22;19501;50.948;5.316;2023-03-23T14:54:36;15.30;99.90
33139;DHT22;19501;50.948;5.316;2023-03-23T14:57:15;14.80;99.90
33139;DHT22;19501;50.948;5.316;2023-03-23T14:59:46;14.60;99.90
33139;DHT22;19501;50.948;5.316;2023-03-23T15:04:54;15.30;99.90
33139;DHT22;19501;50.948;5.316;2023-03-23T15:07:26;15.40;99.90
33139;DHT22;19501;50.948;5.316;2023-03-23T15:09:54;15.40;99.90
33139;DHT22;19501;50.948;5.316;2023-03-23T15:12:26;15.30;99.90
33139;DHT22;19501;50.948;5.316;2023-03-23T15:14:57;15.30;99.90
33139;DHT22;19501;50.948;5.316;2023-03-23T15:17:26;15.20;99.90
33139;DHT22;19501;50.948;5.316;2023-03-23T15:19:54;15.20;99.90
33139;DHT22;19501;50.948;5.316;2023-03-23T15:25:11;14.90;99.90
33139;DHT22;19501;50.948;5.316;2023-03-23T15:27:41;14.60;99.90
33139;DHT22;19501;50.948;5.316;2023-03-23T15:32:44;14.10;99.90
33139;DHT22;19501;50.948;5.316;2023-03-23T15:35:16;14.10;99.90
33139;DHT22;19501;50.948;5.316;2023-03-23T15:37:44;14.10;99.90
33139;DHT22;19501;50.948;5.316;2023-03-23T15:40:21;14.10;99.90
33139;DHT22;19501;50.948;5.316;2023-03-23T15:42:48;14.30;99.90
33139;DHT22;19501;50.948;5.316;2023-03-23T15:52:52;14.80;99.90
33139;DHT22;19501;50.948;5.316;2023-03-23T15:57:47;15.10;99.90
33139;DHT22;19501;50.948;5.316;2023-03-23T16:00:15;15.30;99.90
33139;DHT22;19501;50.948;5.316;2023-03-23T16:02:45;15.60;99.90
33139;DHT22;19501;50.948;5.316;2023-03-23T16:05:12;15.60;99.90
33139;DHT22;19501;50.948;5.316;2023-03-23T16:07:38;15.60;99.90
33139;DHT22;19501;50.948;5.316;2023-03-23T16:10:06;15.70;99.90
33139;DHT22;19501;50.948;5.316;2023-03-23T16:12:32;15.90;99.90
33139;DHT22;19501;50.948;5.316;2023-03-23T16:14:58;16.00;99.90
33139;DHT22;19501;50.948;5.316;2023-03-23T16:17:23;16.00;99.90
33139;DHT22;19501;50.948;5.316;2023-03-23T16:19:49;15.80;99.90
33139;DHT22;19501;50.948;5.316;2023-03-23T16:22:17;15.70;99.90
33139;DHT22;19501;50.948;5.316;2023-03-23T16:24:43;15.70;99.90
33139;DHT22;19501;50.948;5.316;2023-03-23T16:27:10;15.60;99.90
33139;DHT22;19501;50.948;5.316;2023-03-23T16:29:35;15.60;99.90
33139;DHT22;19501;50.948;5.316;2023-03-23T16:32:01;15.50;99.90
33139;DHT22;19501;50.948;5.316;2023-03-23T16:34:27;15.40;99.90
33139;DHT22;19501;50.948;5.316;2023-03-23T16:36:54;15.40;99.90
33139;DHT22;19501;50.948;5.316;2023-03-23T16:39:20;15.40;99.90
33139;DHT22;19501;50.948;5.316;2023-03-23T16:41:46;15.40;99.90
33139;DHT22;19501;50.948;5.316;2023-03-23T16:44:15;15.40;99.90
33139;DHT22;19501;50.948;5.316;2023-03-23T16:46:41;15.40;99.90
33139;DHT22;19501;50.948;5.316;2023-03-23T16:49:06;15.50;99.90
33139;DHT22;19501;50.948;5.316;2023-03-23T16:51:32;15.60;99.90
33139;DHT22;19501;50.948;5.316;2023-03-23T16:53:58;15.60;99.90
33139;DHT22;19501;50.948;5.316;2023-03-23T16:56:24;15.60;99.90
33139;DHT22;19501;50.948;5.316;2023-03-23T16:58:49;15.60;99.90
33139;DHT22;19501;50.948;5.316;2023-03-23T17:01:15;15.50;99.90
33139;DHT22;19501;50.948;5.316;2023-03-23T17:03:41;15.40;99.90
33139;DHT22;19501;50.948;5.316;2023-03-23T17:06:07;15.40;99.90
33139;DHT22;19501;50.948;5.316;2023-03-23T17:08:33;15.30;99.90
33139;DHT22;19501;50.948;5.316;2023-03-23T17:10:59;15.30;99.90
33139;DHT22;19501;50.948;5.316;2023-03-23T17:13:27;15.30;99.90
33139;DHT22;19501;50.948;5.316;2023-03-23T17:15:54;15.30;99.90
33139;DHT22;19501;50.948;5.316;2023-03-23T17:18:22;15.30;99.90
33139;DHT22;19501;50.948;5.316;2023-03-23T17:20:48;15.30;99.90
33139;DHT22;19501;50.948;5.316;2023-03-23T17:23:14;15.20;99.90
33139;DHT22;19501;50.948;5.316;2023-03-23T17:25:43;15.30;99.90
33139;DHT22;19501;50.948;5.316;2023-03-23T17:28:10;15.20;99.90
33139;DHT22;19501;50.948;5.316;2023-03-23T17:30:39;15.20;99.90
33139;DHT22;19501;50.948;5.316;2023-03-23T17:33:05;15.10;99.90
33139;DHT22;19501;50.948;5.316;2023-03-23T17:35:31;15.10;99.90
33139;DHT22;19501;50.948;5.316;2023-03-23T17:37:57;15.10;99.90
33139;DHT22;19501;50.948;5.316;2023-03-23T17:40:23;15.20;99.90
33139;DHT22;19501;50.948;5.316;2023-03-23T17:42:48;15.10;99.90
33139;DHT22;19501;50.948;5.316;2023-03-23T17:45:14;15.00;99.90
33139;DHT22;19501;50.948;5.316;2023-03-23T17:47:40;14.90;99.90
33139;DHT22;19501;50.948;5.316;2023-03-23T17:50:06;14.90;99.90
33139;DHT22;19501;50.948;5.316;2023-03-23T17:52:32;14.80;99.90
33139;DHT22;19501;50.948;5.316;2023-03-23T17:54:58;14.90;99.90
33139;DHT22;19501;50.948;5.316;2023-03-23T17:57:24;14.90;99.90
33139;DHT22;19501;50.948;5.316;2023-03-23T17:59:49;14.90;99.90
33139;DHT22;19501;50.948;5.316;2023-03-23T18:02:15;14.90;99.90
33139;DHT22;19501;50.948;5.316;2023-03-23T18:04:43;14.90;99.90